sensor_id;sensor_type;location;lat;lon;timestamp;temperature;humidity
14236;DHT22;7202;50.718;7.072;2023-04-19T00:00:41;12.30;99.90
14236;DHT22;7202;50.718;7.072;2023-04-19T00:03:10;12.30;99.90
14236;DHT22;7202;50.718;7.072;2023-04-19T00:05:41;12.30;99.90
14236;DHT22;7202;50.718;7.072;2023-04-19T00:08:09;12.30;99.90
14236;DHT22;7202;50.718;7.072;2023-04-19T00:10:38;12.30;99.90
14236;DHT22;7202;50.718;7.072;2023-04-19T00:13:07;12.40;99.90
14236;DHT22;7202;50.718;7.072;2023-04-19T00:15:36;12.40;99.90
14236;DHT22;7202;50.718;7.072;2023-04-19T00:18:06;12.40;99.90
14236;DHT22;7202;50.718;7.072;2023-04-19T00:20:35;12.40;99.90
14236;DHT22;7202;50.718;7.072;2023-04-19T00:23:04;12.30;99.90
14236;DHT22;7202;50.718;7.072;2023-04-19T00:25:32;12.30;99.90
14236;DHT22;7202;50.718;7.072;2023-04-19T00:28:01;12.30;99.90
14236;DHT22;7202;50.718;7.072;2023-04-19T00:30:30;12.30;99.90
14236;DHT22;7202;50.718;7.072;2023-04-19T00:32:59;12.30;99.90
14236;DHT22;7202;50.718;7.072;2023-04-19T00:35:29;12.30;99.90
14236;DHT22;7202;50.718;7.072;2023-04-19T00:37:57;12.20;99.90
14236;DHT22;7202;50.718;7.072;2023-04-19T00:40:26;12.20;99.90
14236;DHT22;7202;50.718;7.072;2023-04-19T00:42:55;12.10;99.90
14236;DHT22;7202;50.718;7.072;2023-04-19T00:45:24;12.20;99.90
14236;DHT22;7202;50.718;7.072;2023-04-19T00:47:53;12.00;99.90
14236;DHT22;7202;50.718;7.072;2023-04-19T00:50:23;12.00;99.90
14236;DHT22;7202;50.718;7.072;2023-04-19T00:52:54;12.00;99.90
14236;DHT22;7202;50.718;7.072;2023-04-19T00:55:24;12.00;99.90
14236;DHT22;7202;50.718;7.072;2023-04-19T00:57:53;12.00;99.90
14236;DHT22;7202;50.718;7.072;2023-04-19T01:00:22;12.00;99.90
14236;DHT22;7202;50.718;7.072;2023-04-19T01:02:50;11.90;99.90
14236;DHT22;7202;50.718;7.072;2023-04-19T01:05:20;11.90;99.90
14236;DHT22;7202;50.718;7.072;2023-04-19T01:07:48;11.90;99.90
14236;DHT22;7202;50.718;7.072;2023-04-19T01:10:19;11.80;99.90
14236;DHT22;7202;50.718;7.072;2023-04-19T01:12:49;11.70;99.90
14236;DHT22;7202;50.718;7.072;2023-04-19T01:15:18;11.60;99.90
14236;DHT22;7202;50.718;7.072;2023-04-19T01:17:49;11.60;99.90
14236;DHT22;7202;50.718;7.072;2023-04-19T01:20:17;11.50;99.90
14236;DHT22;7202;50.718;7.072;2023-04-19T01:22:47;11.40;99.90
14236;DHT22;7202;50.718;7.072;2023-04-19T01:25:16;11.30;99.90
14236;DHT22;7202;50.718;7.072;2023-04-19T01:27:44;11.20;99.90
14236;DHT22;7202;50.718;7.072;2023-04-19T01:30:13;11.10;99.90
14236;DHT22;7202;50.718;7.072;2023-04-19T01:32:42;11.00;99.90
14236;DHT22;7202;50.718;7.072;2023-04-19T01:35:10;10.90;99.90
14236;DHT22;7202;50.718;7.072;2023-04-19T01:37:39;10.80;99.90
14236;DHT22;7202;50.718;7.072;2023-04-19T01:40:11;10.70;99.90
14236;DHT22;7202;50.718;7.072;2023-04-19T01:42:40;10.60;99.90
14236;DHT22;7202;50.718;7.072;2023-04-19T01:45:09;10.60;99.90
14236;DHT22;7202;50.718;7.072;2023-04-19T01:47:38;10.60;99.90
14236;DHT22;7202;50.718;7.072;2023-04-19T01:50:07;10.60;99.90
14236;DHT22;7202;50.718;7.072;2023-04-19T01:52:48;10.50;99.90
14236;DHT22;7202;50.718;7.072;2023-04-19T01:55:18;10.40;99.90
14236;DHT22;7202;50.718;7.072;2023-04-19T01:57:47;10.40;99.90
14236;DHT22;7202;50.718;7.072;2023-04-19T02:00:17;10.30;99.90
14236;DHT22;7202;50.718;7.072;2023-04-19T02:02:46;10.20;99.90
14236;DHT22;7202;50.718;7.072;2023-04-19T02:05:16;10.10;99.90
14236;DHT22;7202;50.718;7.072;2023-04-19T02:07:45;10.10;99.90
14236;DHT22;7202;50.718;7.072;2023-04-19T02:10:13;10.00;99.90
14236;DHT22;7202;50.718;7.072;2023-04-19T02:12:43;9.90;99.90
14236;DHT22;7202;50.718;7.072;2023-04-19T02:15:12;9.90;99.90
14236;DHT22;7202;50.718;7.072;2023-04-19T02:17:40;9.90;99.90
14236;DHT22;7202;50.718;7.072;2023-04-19T02:20:10;9.80;99.90
14236;DHT22;7202;50.718;7.072;2023-04-19T02:22:38;9.80;99.90
14236;DHT22;7202;50.718;7.072;2023-04-19T02:25:07;9.70;99.90
14236;DHT22;7202;50.718;7.072;2023-04-19T02:27:36;9.70;99.90
14236;DHT22;7202;50.718;7.072;2023-04-19T02:30:07;9.70;99.90
14236;DHT22;7202;50.718;7.072;2023-04-19T02:32:36;9.60;99.90
14236;DHT22;7202;50.718;7.072;2023-04-19T02:35:06;9.60;99.90
14236;DHT22;7202;50.718;7.072;2023-04-19T02:37:35;9.50;99.90
14236;DHT22;7202;50.718;7.072;2023-04-19T02:40:05;9.50;99.90
14236;DHT22;7202;50.718;7.072;2023-04-19T02:42:34;9.40;99.90
14236;DHT22;7202;50.718;7.072;2023-04-19T02:45:07;9.40;99.90
14236;DHT22;7202;50.718;7.072;2023-04-19T02:47:36;9.40;99.90
14236;DHT22;7202;50.718;7.072;2023-04-19T02:50:06;9.30;99.90
14236;DHT22;7202;50.718;7.072;2023-04-19T02:52:40;9.30;99.90
14236;DHT22;7202;50.718;7.072;2023-04-19T02:55:09;9.20;99.90
14236;DHT22;7202;50.718;7.072;2023-04-19T02:57:37;9.20;99.90
14236;DHT22;7202;50.718;7.072;2023-04-19T03:00:11;9.10;99.90
14236;DHT22;7202;50.718;7.072;2023-04-19T03:02:47;9.10;99.90
14236;DHT22;7202;50.718;7.072;2023-04-19T03:05:16;9.10;99.90
14236;DHT22;7202;50.718;7.072;2023-04-19T03:07:44;9.00;99.90
14236;DHT22;7202;50.718;7.072;2023-04-19T03:10:13;9.00;99.90
14236;DHT22;7202;50.718;7.072;2023-04-19T03:12:42;9.00;99.90
14236;DHT22;7202;50.718;7.072;2023-04-19T03:15:12;8.90;99.90
14236;DHT22;7202;50.718;7.072;2023-04-19T03:17:40;8.90;99.90
14236;DHT22;7202;50.718;7.072;2023-04-19T03:20:10;8.80;99.90
14236;DHT22;7202;50.718;7.072;2023-04-19T03:22:39;8.80;99.90
14236;DHT22;7202;50.718;7.072;2023-04-19T03:25:09;8.80;99.90
14236;DHT22;7202;50.718;7.072;2023-04-19T03:27:41;8.80;99.90
14236;DHT22;7202;50.718;7.072;2023-04-19T03:30:14;8.80;99.90
14236;DHT22;7202;50.718;7.072;2023-04-19T03:32:43;8.80;99.90
14236;DHT22;7202;50.718;7.072;2023-04-19T03:35:13;8.80;99.90
14236;DHT22;7202;50.718;7.072;2023-04-19T03:37:42;8.80;99.90
14236;DHT22;7202;50.718;7.072;2023-04-19T03:40:11;8.80;99.90
14236;DHT22;7202;50.718;7.072;2023-04-19T03:42:40;8.80;99.90
14236;DHT22;7202;50.718;7.072;2023-04-19T03:45:13;8.90;99.90
14236;DHT22;7202;50.718;7.072;2023-04-19T03:47:46;8.90;99.90
14236;DHT22;7202;50.718;7.072;2023-04-19T03:50:15;9.00;99.90
14236;DHT22;7202;50.718;7.072;2023-04-19T03:52:46;9.00;99.90
14236;DHT22;7202;50.718;7.072;2023-04-19T03:55:16;9.00;99.90
14236;DHT22;7202;50.718;7.072;2023-04-19T03:57:46;9.00;99.90
14236;DHT22;7202;50.718;7.072;2023-04-19T04:00:25;9.10;99.90
14236;DHT22;7202;50.718;7.072;2023-04-19T04:02:58;9.10;99.90
14236;DHT22;7202;50.718;7.072;2023-04-19T04:05:28;9.10;99.90
14236;DHT22;7202;50.718;7.072;2023-04-19T04:07:57;9.10;99.90
14236;DHT22;7202;50.718;7.072;2023-04-19T04:10:26;9.10;99.90
14236;DHT22;7202;50.718;7.072;2023-04-19T04:12:54;9.10;99.90
14236;DHT22;7202;50.718;7.072;2023-04-19T04:15:31;9.10;99.90
14236;DHT22;7202;50.718;7.072;2023-04-19T04:18:00;9.20;99.90
14236;DHT22;7202;50.718;7.072;2023-04-19T04:20:29;9.20;99.90
14236;DHT22;7202;50.718;7.072;2023-04-19T04:23:04;9.10;99.90
14236;DHT22;7202;50.718;7.072;2023-04-19T04:25:34;9.20;99.90
14236;DHT22;7202;50.718;7.072;2023-04-19T04:28:07;9.20;99.90
14236;DHT22;7202;50.718;7.072;2023-04-19T04:30:37;9.20;99.90
14236;DHT22;7202;50.718;7.072;2023-04-19T04:33:08;9.20;99.90
14236;DHT22;7202;50.718;7.072;2023-04-19T04:35:39;9.20;99.90
14236;DHT22;7202;50.718;7.072;2023-04-19T04:38:13;9.30;99.90
14236;DHT22;7202;50.718;7.072;2023-04-19T04:40:52;9.20;99.90
14236;DHT22;7202;50.718;7.072;2023-04-19T04:43:22;9.30;99.90
14236;DHT22;7202;50.718;7.072;2023-04-19T04:45:53;9.30;99.90
14236;DHT22;7202;50.718;7.072;2023-04-19T04:48:26;9.30;99.90
14236;DHT22;7202;50.718;7.072;2023-04-19T04:50:56;9.30;99.90
14236;DHT22;7202;50.718;7.072;2023-04-19T04:53:25;9.30;99.90
14236;DHT22;7202;50.718;7.072;2023-04-19T04:55:55;9.30;99.90
14236;DHT22;7202;50.718;7.072;2023-04-19T04:58:24;9.30;99.90
14236;DHT22;7202;50.718;7.072;2023-04-19T05:01:04;9.30;99.90
14236;DHT22;7202;50.718;7.072;2023-04-19T05:03:37;9.30;99.90
14236;DHT22;7202;50.718;7.072;2023-04-19T05:06:10;9.30;99.90
14236;DHT22;7202;50.718;7.072;2023-04-19T05:08:39;9.30;99.90
14236;DHT22;7202;50.718;7.072;2023-04-19T05:11:32;9.40;99.90
14236;DHT22;7202;50.718;7.072;2023-04-19T05:14:01;9.40;99.90
14236;DHT22;7202;50.718;7.072;2023-04-19T05:16:33;9.50;99.90
14236;DHT22;7202;50.718;7.072;2023-04-19T05:19:03;9.50;99.90
14236;DHT22;7202;50.718;7.072;2023-04-19T05:21:36;9.50;99.90
14236;DHT22;7202;50.718;7.072;2023-04-19T05:24:06;9.60;99.90
14236;DHT22;7202;50.718;7.072;2023-04-19T05:26:36;9.60;99.90
14236;DHT22;7202;50.718;7.072;2023-04-19T05:29:06;9.60;99.90
14236;DHT22;7202;50.718;7.072;2023-04-19T05:31:45;9.80;99.90
14236;DHT22;7202;50.718;7.072;2023-04-19T05:34:21;9.70;99.90
14236;DHT22;7202;50.718;7.072;2023-04-19T05:36:50;9.70;99.90
14236;DHT22;7202;50.718;7.072;2023-04-19T05:39:18;9.70;99.90
14236;DHT22;7202;50.718;7.072;2023-04-19T05:41:47;9.80;99.90
14236;DHT22;7202;50.718;7.072;2023-04-19T05:44:16;9.80;99.90
14236;DHT22;7202;50.718;7.072;2023-04-19T05:46:46;9.80;99.90
14236;DHT22;7202;50.718;7.072;2023-04-19T05:49:20;9.80;99.90
14236;DHT22;7202;50.718;7.072;2023-04-19T05:52:18;9.90;99.90
14236;DHT22;7202;50.718;7.072;2023-04-19T05:54:54;9.90;99.90
14236;DHT22;7202;50.718;7.072;2023-04-19T05:57:23;9.90;99.90
14236;DHT22;7202;50.718;7.072;2023-04-19T05:59:52;10.00;99.90
14236;DHT22;7202;50.718;7.072;2023-04-19T06:02:25;10.00;99.90
14236;DHT22;7202;50.718;7.072;2023-04-19T06:04:55;10.10;99.90
14236;DHT22;7202;50.718;7.072;2023-04-19T06:07:26;10.10;99.90
14236;DHT22;7202;50.718;7.072;2023-04-19T06:10:05;10.20;99.90
14236;DHT22;7202;50.718;7.072;2023-04-19T06:12:34;10.20;99.90
14236;DHT22;7202;50.718;7.072;2023-04-19T06:15:03;10.30;99.90
14236;DHT22;7202;50.718;7.072;2023-04-19T06:17:34;10.40;99.90
14236;DHT22;7202;50.718;7.072;2023-04-19T06:20:03;10.50;99.90
14236;DHT22;7202;50.718;7.072;2023-04-19T06:22:34;10.60;99.90
14236;DHT22;7202;50.718;7.072;2023-04-19T06:25:03;10.60;99.90
14236;DHT22;7202;50.718;7.072;2023-04-19T06:27:32;10.70;99.90
14236;DHT22;7202;50.718;7.072;2023-04-19T06:30:01;10.80;99.90
14236;DHT22;7202;50.718;7.072;2023-04-19T06:32:29;10.90;99.90
14236;DHT22;7202;50.718;7.072;2023-04-19T06:34:59;10.90;99.90
14236;DHT22;7202;50.718;7.072;2023-04-19T06:37:28;11.00;99.90
14236;DHT22;7202;50.718;7.072;2023-04-19T06:39:56;11.10;99.90
14236;DHT22;7202;50.718;7.072;2023-04-19T06:42:25;11.10;99.90
14236;DHT22;7202;50.718;7.072;2023-04-19T06:44:54;11.10;99.90
14236;DHT22;7202;50.718;7.072;2023-04-19T06:47:23;11.20;99.90
14236;DHT22;7202;50.718;7.072;2023-04-19T06:49:52;11.30;99.90
14236;DHT22;7202;50.718;7.072;2023-04-19T06:52:22;11.30;99.90
14236;DHT22;7202;50.718;7.072;2023-04-19T06:54:51;11.40;99.90
14236;DHT22;7202;50.718;7.072;2023-04-19T06:57:19;11.40;99.90
14236;DHT22;7202;50.718;7.072;2023-04-19T06:59:48;11.40;99.90
14236;DHT22;7202;50.718;7.072;2023-04-19T07:02:17;11.40;99.90
14236;DHT22;7202;50.718;7.072;2023-04-19T07:04:46;11.50;99.90
14236;DHT22;7202;50.718;7.072;2023-04-19T07:07:15;11.50;99.90
14236;DHT22;7202;50.718;7.072;2023-04-19T07:09:45;11.50;99.90
14236;DHT22;7202;50.718;7.072;2023-04-19T07:12:13;11.60;99.90
14236;DHT22;7202;50.718;7.072;2023-04-19T07:14:42;11.70;99.90
14236;DHT22;7202;50.718;7.072;2023-04-19T07:17:11;11.70;99.90
14236;DHT22;7202;50.718;7.072;2023-04-19T07:19:40;11.80;99.90
14236;DHT22;7202;50.718;7.072;2023-04-19T07:22:09;11.80;99.90
14236;DHT22;7202;50.718;7.072;2023-04-19T07:24:40;11.80;99.90
14236;DHT22;7202;50.718;7.072;2023-04-19T07:27:12;11.90;99.90
14236;DHT22;7202;50.718;7.072;2023-04-19T07:29:42;12.00;99.90
14236;DHT22;7202;50.718;7.072;2023-04-19T07:32:11;12.10;99.90
14236;DHT22;7202;50.718;7.072;2023-04-19T07:34:41;12.10;99.90
14236;DHT22;7202;50.718;7.072;2023-04-19T07:37:12;12.20;99.90
14236;DHT22;7202;50.718;7.072;2023-04-19T07:39:40;12.30;99.90
14236;DHT22;7202;50.718;7.072;2023-04-19T07:42:09;12.40;99.90
14236;DHT22;7202;50.718;7.072;2023-04-19T07:44:39;12.40;99.90
14236;DHT22;7202;50.718;7.072;2023-04-19T07:47:07;12.50;99.90
14236;DHT22;7202;50.718;7.072;2023-04-19T07:49:36;12.60;99.90
14236;DHT22;7202;50.718;7.072;2023-04-19T07:52:06;12.70;99.90
14236;DHT22;7202;50.718;7.072;2023-04-19T07:54:35;12.80;99.90
14236;DHT22;7202;50.718;7.072;2023-04-19T07:57:05;12.90;99.90
14236;DHT22;7202;50.718;7.072;2023-04-19T07:59:33;13.00;99.90
14236;DHT22;7202;50.718;7.072;2023-04-19T08:02:03;13.10;99.90
14236;DHT22;7202;50.718;7.072;2023-04-19T08:04:32;13.20;99.90
14236;DHT22;7202;50.718;7.072;2023-04-19T08:07:01;13.30;99.90
14236;DHT22;7202;50.718;7.072;2023-04-19T08:09:32;13.40;99.90
14236;DHT22;7202;50.718;7.072;2023-04-19T08:12:01;13.40;99.90
14236;DHT22;7202;50.718;7.072;2023-04-19T08:14:30;13.50;99.90
14236;DHT22;7202;50.718;7.072;2023-04-19T08:17:15;13.60;99.90
14236;DHT22;7202;50.718;7.072;2023-04-19T08:19:54;13.70;99.90
14236;DHT22;7202;50.718;7.072;2023-04-19T08:22:23;13.70;99.90
14236;DHT22;7202;50.718;7.072;2023-04-19T08:24:51;13.80;99.90
14236;DHT22;7202;50.718;7.072;2023-04-19T08:27:20;13.90;99.90
14236;DHT22;7202;50.718;7.072;2023-04-19T08:29:49;14.00;99.90
14236;DHT22;7202;50.718;7.072;2023-04-19T08:32:19;14.00;99.90
14236;DHT22;7202;50.718;7.072;2023-04-19T08:34:48;14.10;99.90
14236;DHT22;7202;50.718;7.072;2023-04-19T08:37:16;14.20;99.90
14236;DHT22;7202;50.718;7.072;2023-04-19T08:39:45;14.20;99.90
14236;DHT22;7202;50.718;7.072;2023-04-19T08:42:13;14.30;99.90
14236;DHT22;7202;50.718;7.072;2023-04-19T08:45:02;14.40;99.90
14236;DHT22;7202;50.718;7.072;2023-04-19T08:47:37;14.40;99.90
14236;DHT22;7202;50.718;7.072;2023-04-19T08:50:09;14.50;99.90
14236;DHT22;7202;50.718;7.072;2023-04-19T08:52:58;14.50;99.90
14236;DHT22;7202;50.718;7.072;2023-04-19T08:55:47;14.60;99.90
14236;DHT22;7202;50.718;7.072;2023-04-19T08:58:19;14.60;99.90
14236;DHT22;7202;50.718;7.072;2023-04-19T09:01:04;14.70;99.90
14236;DHT22;7202;50.718;7.072;2023-04-19T09:03:34;14.70;99.90
14236;DHT22;7202;50.718;7.072;2023-04-19T09:06:17;14.70;99.90
14236;DHT22;7202;50.718;7.072;2023-04-19T09:08:46;14.80;99.90
14236;DHT22;7202;50.718;7.072;2023-04-19T09:11:15;14.80;99.90
14236;DHT22;7202;50.718;7.072;2023-04-19T09:13:43;14.90;99.90
14236;DHT22;7202;50.718;7.072;2023-04-19T09:16:24;15.10;99.90
14236;DHT22;7202;50.718;7.072;2023-04-19T09:18:55;15.20;99.90
14236;DHT22;7202;50.718;7.072;2023-04-19T09:21:42;15.20;99.90
14236;DHT22;7202;50.718;7.072;2023-04-19T09:24:10;15.30;99.90
14236;DHT22;7202;50.718;7.072;2023-04-19T09:26:52;15.40;99.90
14236;DHT22;7202;50.718;7.072;2023-04-19T09:29:21;15.40;99.90
14236;DHT22;7202;50.718;7.072;2023-04-19T09:31:56;15.40;99.90
14236;DHT22;7202;50.718;7.072;2023-04-19T09:34:29;15.40;99.90
14236;DHT22;7202;50.718;7.072;2023-04-19T09:37:10;15.50;99.90
14236;DHT22;7202;50.718;7.072;2023-04-19T09:39:59;15.60;99.90
14236;DHT22;7202;50.718;7.072;2023-04-19T09:42:44;15.70;99.90
14236;DHT22;7202;50.718;7.072;2023-04-19T09:45:16;15.60;99.90
14236;DHT22;7202;50.718;7.072;2023-04-19T09:48:00;15.60;99.90
14236;DHT22;7202;50.718;7.072;2023-04-19T09:50:31;15.50;99.90
14236;DHT22;7202;50.718;7.072;2023-04-19T09:53:17;15.50;99.90
14236;DHT22;7202;50.718;7.072;2023-04-19T09:55:46;15.70;99.90
14236;DHT22;7202;50.718;7.072;2023-04-19T09:58:28;15.80;99.90
14236;DHT22;7202;50.718;7.072;2023-04-19T10:01:00;16.10;99.90
14236;DHT22;7202;50.718;7.072;2023-04-19T10:03:43;16.20;99.90
14236;DHT22;7202;50.718;7.072;2023-04-19T10:06:15;16.20;99.90
14236;DHT22;7202;50.718;7.072;2023-04-19T10:08:48;16.30;99.90
14236;DHT22;7202;50.718;7.072;2023-04-19T10:11:20;16.40;99.90
14236;DHT22;7202;50.718;7.072;2023-04-19T10:13:55;16.50;99.90
14236;DHT22;7202;50.718;7.072;2023-04-19T10:16:25;16.60;99.90
14236;DHT22;7202;50.718;7.072;2023-04-19T10:18:54;16.70;99.90
14236;DHT22;7202;50.718;7.072;2023-04-19T10:21:26;16.60;99.90
14236;DHT22;7202;50.718;7.072;2023-04-19T10:23:55;16.50;99.90
14236;DHT22;7202;50.718;7.072;2023-04-19T10:26:24;16.50;99.90
14236;DHT22;7202;50.718;7.072;2023-04-19T10:28:54;16.40;99.90
14236;DHT22;7202;50.718;7.072;2023-04-19T10:31:25;16.50;99.90
14236;DHT22;7202;50.718;7.072;2023-04-19T10:33:54;16.50;99.90
14236;DHT22;7202;50.718;7.072;2023-04-19T10:36:26;16.50;99.90
14236;DHT22;7202;50.718;7.072;2023-04-19T10:38:55;16.50;99.90
14236;DHT22;7202;50.718;7.072;2023-04-19T10:41:57;16.60;99.90
14236;DHT22;7202;50.718;7.072;2023-04-19T10:44:26;16.60;99.90
14236;DHT22;7202;50.718;7.072;2023-04-19T10:46:54;16.70;99.90
14236;DHT22;7202;50.718;7.072;2023-04-19T10:49:23;16.80;99.90
14236;DHT22;7202;50.718;7.072;2023-04-19T10:51:53;16.80;99.90
14236;DHT22;7202;50.718;7.072;2023-04-19T10:54:28;16.80;99.90
14236;DHT22;7202;50.718;7.072;2023-04-19T10:57:01;16.90;99.90
14236;DHT22;7202;50.718;7.072;2023-04-19T10:59:32;16.90;99.90
14236;DHT22;7202;50.718;7.072;2023-04-19T11:02:02;16.80;99.90
14236;DHT22;7202;50.718;7.072;2023-04-19T11:04:57;16.80;99.90
14236;DHT22;7202;50.718;7.072;2023-04-19T11:07:28;16.80;99.90
14236;DHT22;7202;50.718;7.072;2023-04-19T11:10:04;16.80;99.90
14236;DHT22;7202;50.718;7.072;2023-04-19T11:12:33;16.80;99.90
14236;DHT22;7202;50.718;7.072;2023-04-19T11:15:01;16.80;99.90
14236;DHT22;7202;50.718;7.072;2023-04-19T11:17:30;16.80;99.90
14236;DHT22;7202;50.718;7.072;2023-04-19T11:20:00;16.80;99.90
14236;DHT22;7202;50.718;7.072;2023-04-19T11:22:32;16.80;99.90
14236;DHT22;7202;50.718;7.072;2023-04-19T11:25:07;16.80;99.90
14236;DHT22;7202;50.718;7.072;2023-04-19T11:27:37;16.80;99.90
14236;DHT22;7202;50.718;7.072;2023-04-19T11:30:07;16.80;99.90
14236;DHT22;7202;50.718;7.072;2023-04-19T11:32:37;16.90;99.90
14236;DHT22;7202;50.718;7.072;2023-04-19T11:35:06;17.00;99.90
14236;DHT22;7202;50.718;7.072;2023-04-19T11:37:38;17.00;99.90
14236;DHT22;7202;50.718;7.072;2023-04-19T11:40:07;17.10;99.90
14236;DHT22;7202;50.718;7.072;2023-04-19T11:42:55;17.10;99.90
14236;DHT22;7202;50.718;7.072;2023-04-19T11:45:25;17.10;99.90
14236;DHT22;7202;50.718;7.072;2023-04-19T11:48:00;17.00;99.90
14236;DHT22;7202;50.718;7.072;2023-04-19T11:50:38;17.00;99.90
14236;DHT22;7202;50.718;7.072;2023-04-19T11:53:13;16.90;99.90
14236;DHT22;7202;50.718;7.072;2023-04-19T11:55:44;16.90;99.90
14236;DHT22;7202;50.718;7.072;2023-04-19T11:58:23;17.00;99.90
14236;DHT22;7202;50.718;7.072;2023-04-19T12:00:52;17.00;99.90
14236;DHT22;7202;50.718;7.072;2023-04-19T12:03:22;17.20;99.90
14236;DHT22;7202;50.718;7.072;2023-04-19T12:05:54;17.20;99.90
14236;DHT22;7202;50.718;7.072;2023-04-19T12:08:32;17.20;99.90
14236;DHT22;7202;50.718;7.072;2023-04-19T12:11:02;17.20;99.90
14236;DHT22;7202;50.718;7.072;2023-04-19T12:13:32;17.20;99.90
14236;DHT22;7202;50.718;7.072;2023-04-19T12:16:00;17.20;99.90
14236;DHT22;7202;50.718;7.072;2023-04-19T12:18:41;17.30;99.90
14236;DHT22;7202;50.718;7.072;2023-04-19T12:21:23;17.20;99.90
14236;DHT22;7202;50.718;7.072;2023-04-19T12:23:56;17.20;99.90
14236;DHT22;7202;50.718;7.072;2023-04-19T12:26:26;17.30;99.90
14236;DHT22;7202;50.718;7.072;2023-04-19T12:28:56;17.30;99.90
14236;DHT22;7202;50.718;7.072;2023-04-19T12:31:25;17.40;99.90
14236;DHT22;7202;50.718;7.072;2023-04-19T12:33:53;17.40;99.90
14236;DHT22;7202;50.718;7.072;2023-04-19T12:36:22;17.40;99.90
14236;DHT22;7202;50.718;7.072;2023-04-19T12:38:51;17.40;99.90
14236;DHT22;7202;50.718;7.072;2023-04-19T12:41:20;17.30;99.90
14236;DHT22;7202;50.718;7.072;2023-04-19T12:43:49;17.20;99.50
14236;DHT22;7202;50.718;7.072;2023-04-19T12:46:18;17.20;99.70
14236;DHT22;7202;50.718;7.072;2023-04-19T12:48:46;17.20;97.70
14236;DHT22;7202;50.718;7.072;2023-04-19T12:51:15;17.20;97.70
14236;DHT22;7202;50.718;7.072;2023-04-19T12:53:46;17.10;98.20
14236;DHT22;7202;50.718;7.072;2023-04-19T12:56:16;17.10;98.90
14236;DHT22;7202;50.718;7.072;2023-04-19T12:58:46;17.10;97.30
14236;DHT22;7202;50.718;7.072;2023-04-19T13:01:15;17.10;98.30
14236;DHT22;7202;50.718;7.072;2023-04-19T13:03:43;17.10;96.90
14236;DHT22;7202;50.718;7.072;2023-04-19T13:06:12;17.20;97.10
14236;DHT22;7202;50.718;7.072;2023-04-19T13:08:43;17.30;95.50
14236;DHT22;7202;50.718;7.072;2023-04-19T13:11:15;17.40;94.90
14236;DHT22;7202;50.718;7.072;2023-04-19T13:13:51;17.40;95.50
14236;DHT22;7202;50.718;7.072;2023-04-19T13:16:19;17.50;95.40
14236;DHT22;7202;50.718;7.072;2023-04-19T13:18:49;17.60;94.20
14236;DHT22;7202;50.718;7.072;2023-04-19T13:21:19;17.60;95.20
14236;DHT22;7202;50.718;7.072;2023-04-19T13:23:49;17.50;94.90
14236;DHT22;7202;50.718;7.072;2023-04-19T13:26:18;17.40;93.70
14236;DHT22;7202;50.718;7.072;2023-04-19T13:28:46;17.40;93.70
14236;DHT22;7202;50.718;7.072;2023-04-19T13:31:16;17.40;92.30
14236;DHT22;7202;50.718;7.072;2023-04-19T13:33:45;17.40;91.50
14236;DHT22;7202;50.718;7.072;2023-04-19T13:36:14;17.40;90.80
14236;DHT22;7202;50.718;7.072;2023-04-19T13:38:42;17.20;91.20
14236;DHT22;7202;50.718;7.072;2023-04-19T13:41:11;17.30;89.80
14236;DHT22;7202;50.718;7.072;2023-04-19T13:43:40;17.30;90.50
14236;DHT22;7202;50.718;7.072;2023-04-19T13:46:08;17.30;91.30
14236;DHT22;7202;50.718;7.072;2023-04-19T13:48:39;17.30;90.80
14236;DHT22;7202;50.718;7.072;2023-04-19T13:51:07;17.40;88.90
14236;DHT22;7202;50.718;7.072;2023-04-19T13:53:36;17.30;83.80
14236;DHT22;7202;50.718;7.072;2023-04-19T13:56:07;17.30;82.60
14236;DHT22;7202;50.718;7.072;2023-04-19T13:58:36;17.20;83.70
14236;DHT22;7202;50.718;7.072;2023-04-19T14:01:05;17.20;80.90
14236;DHT22;7202;50.718;7.072;2023-04-19T14:03:34;17.10;84.70
14236;DHT22;7202;50.718;7.072;2023-04-19T14:06:04;17.10;84.90
14236;DHT22;7202;50.718;7.072;2023-04-19T14:08:33;17.20;77.30
14236;DHT22;7202;50.718;7.072;2023-04-19T14:11:02;17.20;80.10
14236;DHT22;7202;50.718;7.072;2023-04-19T14:13:31;17.20;85.10
14236;DHT22;7202;50.718;7.072;2023-04-19T14:16:00;17.20;79.70
14236;DHT22;7202;50.718;7.072;2023-04-19T14:18:28;17.20;83.10
14236;DHT22;7202;50.718;7.072;2023-04-19T14:20:57;17.20;78.80
14236;DHT22;7202;50.718;7.072;2023-04-19T14:23:27;17.20;77.50
14236;DHT22;7202;50.718;7.072;2023-04-19T14:25:55;17.10;82.30
14236;DHT22;7202;50.718;7.072;2023-04-19T14:28:24;17.00;79.10
14236;DHT22;7202;50.718;7.072;2023-04-19T14:30:53;17.00;80.70
14236;DHT22;7202;50.718;7.072;2023-04-19T14:33:21;17.00;76.50
14236;DHT22;7202;50.718;7.072;2023-04-19T14:35:50;16.90;80.20
14236;DHT22;7202;50.718;7.072;2023-04-19T14:38:19;16.90;77.40
14236;DHT22;7202;50.718;7.072;2023-04-19T14:40:49;16.90;78.70
14236;DHT22;7202;50.718;7.072;2023-04-19T14:43:17;16.80;77.90
14236;DHT22;7202;50.718;7.072;2023-04-19T14:45:47;16.80;79.10
14236;DHT22;7202;50.718;7.072;2023-04-19T14:48:16;16.80;77.00
14236;DHT22;7202;50.718;7.072;2023-04-19T14:50:48;16.80;79.40
14236;DHT22;7202;50.718;7.072;2023-04-19T14:53:17;16.90;78.60
14236;DHT22;7202;50.718;7.072;2023-04-19T14:55:45;16.90;80.60
14236;DHT22;7202;50.718;7.072;2023-04-19T14:58:15;16.80;75.00
14236;DHT22;7202;50.718;7.072;2023-04-19T15:00:44;16.90;77.40
14236;DHT22;7202;50.718;7.072;2023-04-19T15:03:13;16.80;78.60
14236;DHT22;7202;50.718;7.072;2023-04-19T15:05:42;16.80;72.00
14236;DHT22;7202;50.718;7.072;2023-04-19T15:08:11;16.60;72.30
14236;DHT22;7202;50.718;7.072;2023-04-19T15:10:56;16.60;75.20
14236;DHT22;7202;50.718;7.072;2023-04-19T15:13:26;16.50;72.90
14236;DHT22;7202;50.718;7.072;2023-04-19T15:15:56;16.30;74.30
14236;DHT22;7202;50.718;7.072;2023-04-19T15:18:27;16.30;72.50
14236;DHT22;7202;50.718;7.072;2023-04-19T15:20:55;16.30;72.90
14236;DHT22;7202;50.718;7.072;2023-04-19T15:23:24;16.30;71.60
14236;DHT22;7202;50.718;7.072;2023-04-19T15:25:54;16.20;76.50
14236;DHT22;7202;50.718;7.072;2023-04-19T15:28:23;16.20;77.00
14236;DHT22;7202;50.718;7.072;2023-04-19T15:30:59;16.20;74.40
14236;DHT22;7202;50.718;7.072;2023-04-19T15:33:28;16.20;74.70
14236;DHT22;7202;50.718;7.072;2023-04-19T15:35:57;16.20;77.50
14236;DHT22;7202;50.718;7.072;2023-04-19T15:38:27;16.20;74.00
14236;DHT22;7202;50.718;7.072;2023-04-19T15:40:58;16.10;75.70
14236;DHT22;7202;50.718;7.072;2023-04-19T15:43:26;16.10;77.80
14236;DHT22;7202;50.718;7.072;2023-04-19T15:45:56;16.00;79.80
14236;DHT22;7202;50.718;7.072;2023-04-19T15:48:25;16.00;80.30
14236;DHT22;7202;50.718;7.072;2023-04-19T15:50:54;16.00;83.50
14236;DHT22;7202;50.718;7.072;2023-04-19T15:53:22;16.00;79.80
14236;DHT22;7202;50.718;7.072;2023-04-19T15:55:51;16.00;78.80
14236;DHT22;7202;50.718;7.072;2023-04-19T15:58:22;14.90;79.50
14236;DHT22;7202;50.718;7.072;2023-04-19T16:00:51;15.90;78.20
14236;DHT22;7202;50.718;7.072;2023-04-19T16:03:21;15.80;82.70
14236;DHT22;7202;50.718;7.072;2023-04-19T16:05:50;15.80;79.00
14236;DHT22;7202;50.718;7.072;2023-04-19T16:08:18;15.80;81.30
14236;DHT22;7202;50.718;7.072;2023-04-19T16:10:47;15.80;82.40
14236;DHT22;7202;50.718;7.072;2023-04-19T16:13:16;15.80;81.60